Latest Weather Observations for Canberra

IDN60901

Issued at 8:11 pm EST Monday 22 April 2019 (issued every 10 minutes, with the page automatically refreshed every 10 minutes)

About weather observations | Map of Canberra area stations | Latest observations for Canberra area | Other Formats
Station Details ID: 070351 Name: CANBERRA AIRPORT Lat: -35.31 Lon: 149.20 Height: 577.05 m
Data from the previous 72 hours. | See also: Recent months at Canberra
Date/Time
EST
Temp
°C
App
Temp
°C
Dew
Point
°C
Rel
Hum
%
Delta-T
°C
Wind Press
QNH
hPa
Press
MSL
hPa
Rain since
9am
mm
Dir  Spd
km/h
Gust
km/h
Spd
kts
Gust
kts
22/08:00pm 16.7 17.1 14.7 88 1.2 NNE 6 11 3 6 1027.0 1026.4 9.8
22/07:30pm 16.5 18.0 14.7 89 1.1 CALM 0 0 0 0 1026.4 1025.7 9.8
22/07:00pm 16.7 17.2 15.1 90 0.9 SSE 6 9 3 5 1025.8 1025.1 9.8
22/06:30pm 16.9 16.3 15.6 92 0.8 SSE 13 22 7 12 1025.1 1024.4 9.8
22/06:00pm 17.3 16.5 16.0 92 0.8 SSE 15 20 8 11 1024.8 1024.1 9.8
22/05:31pm 17.0 15.5 16.4 96 0.4 SE 19 28 10 15 1024.2 1023.5 9.8
22/05:30pm 17.0 15.4 16.4 96 0.4 SE 20 28 11 15 1024.2 1023.5 9.8
22/05:29pm 17.1 15.5 16.5 96 0.4 SE 20 30 11 16 1024.1 1023.4 9.6
22/05:15pm 17.1 16.3 16.1 94 0.6 ESE 15 26 8 14 1023.9 1023.2 9.2
22/05:10pm 17.1 17.0 16.1 94 0.6 E 11 19 6 10 1024.1 1023.4 8.2
22/05:00pm 16.7 15.6 15.4 92 0.8 ESE 15 19 8 10 1023.9 1023.2 6.2
22/04:30pm 16.6 15.6 14.6 88 1.2 SE 13 17 7 9 1023.4 1022.7 6.2
22/04:00pm 17.5 17.8 14.4 82 1.8 SSE 6 13 3 7 1023.3 1022.6 6.0
22/03:55pm 17.7 18.8 13.6 77 2.4 CALM 0 2 0 1 1023.4 1022.7 6.0
22/03:31pm 17.6 15.5 15.2 86 1.4 SE 20 26 11 14 1023.0 1022.3 6.0
22/03:30pm 17.6 15.4 15.0 85 1.6 SE 20 26 11 14 1023.0 1022.3 6.0
22/03:16pm 17.0 14.9 14.8 87 1.3 SSE 19 24 10 13 1023.0 1022.3 6.0
22/03:00pm 17.4 16.7 14.3 82 1.8 SW 11 20 6 11 1022.8 1022.1 5.0
22/02:48pm 18.5 17.7 12.9 70 3.2 SE 9 19 5 10 1022.5 1021.8 3.0
22/02:42pm 18.4 15.9 12.4 68 3.4 ESE 17 32 9 17 1022.3 1021.5 2.0
22/02:30pm 20.6 14.8 10.7 53 5.6 ESE 32 46 17 25 1021.9 1021.1 0.0
22/02:21pm 21.5 18.8 13.4 60 4.8 SE 20 43 11 23 1022.0 1021.2 0.0
22/02:00pm 23.2 21.7 14.2 57 5.4 ESE 15 19 8 10 1021.9 1021.1 0.0
22/01:49pm 22.6 19.7 13.9 58 5.2 SE 22 30 12 16 1022.2 1021.4 0.0
22/01:32pm 22.6 21.1 15.4 64 4.4 SSE 17 30 9 16 1022.1 1021.3 0.0
22/01:30pm 23.1 22.5 15.7 63 4.6 SSE 13 26 7 14 1022.1 1021.3 0.0
22/01:00pm 23.0 22.6 15.1 61 4.8 SSE 11 15 6 8 1022.2 1021.4 0.0
22/12:30pm 23.4 23.2 13.0 52 6.1 NNW 6 13 3 7 1022.5 1021.8 0.0
22/12:00pm 23.3 21.6 12.6 51 6.3 WNW 13 20 7 11 1022.7 1022.0 0.0
22/11:30am 24.6 23.8 12.9 48 6.9 WNW 9 13 5 7 1023.0 1022.3 0.0
22/11:00am 23.3 22.5 12.9 52 6.1 WSW 9 11 5 6 1023.2 1022.5 0.0
22/10:30am 22.7 21.5 12.9 54 5.8 WSW 11 15 6 8 1023.4 1022.7 0.0
22/10:00am 22.2 21.3 12.7 55 5.5 WSW 9 11 5 6 1023.6 1022.8 0.0
22/09:30am 20.4 19.6 12.9 62 4.4 SW 9 11 5 6 1023.9 1023.2 0.0
22/09:00am 18.9 18.8 13.3 70 3.2 WSW 6 11 3 6 1024.1 1023.4 0.0
22/08:30am 17.2 17.2 13.7 80 2.0 NW 6 7 3 4 1024.1 1023.4 0.0
22/08:00am 16.0 15.6 13.1 83 1.7 N 7 9 4 5 1024.1 1023.4 0.0
22/07:30am 14.1 13.3 13.0 93 0.6 E 9 13 5 7 1024.0 1023.3 0.0
22/07:00am 12.7 12.2 12.2 97 0.3 WSW 6 9 3 5 1024.0 1023.3 0.0
22/06:30am 12.9 12.0 12.7 99 0.1 ESE 9 11 5 6 1023.6 1022.8 0.0
22/06:00am 12.0 12.2 11.7 98 0.2 N 2 7 1 4 1023.2 1022.5 0.0
22/05:30am 12.4 13.0 11.8 96 0.3 CALM 0 0 0 0 1022.7 1022.0 0.0
22/05:00am 12.6 13.3 12.1 97 0.3 CALM 0 0 0 0 1022.7 1022.0 0.0
22/04:30am 12.5 12.7 12.0 97 0.3 NW 2 9 1 5 1022.7 1022.0 0.0
22/04:00am 12.3 10.9 11.0 92 0.7 NNW 9 11 5 6 1022.4 1021.7 0.0
22/03:30am 12.8 12.9 11.5 92 0.7 ESE 2 7 1 4 1022.2 1021.4 0.0
22/03:00am 13.3 12.6 12.0 92 0.7 SE 7 7 4 4 1022.4 1021.7 0.0
22/02:30am 13.1 12.4 11.5 90 0.9 SE 6 9 3 5 1022.6 1021.9 0.0
22/02:00am 14.2 13.2 12.2 88 1.1 N 9 9 5 5 1022.6 1021.9 0.0
22/01:30am 14.9 14.3 12.4 85 1.4 ESE 7 9 4 5 1022.8 1022.1 0.0
22/01:00am 15.5 14.2 12.6 83 1.6 ESE 11 15 6 8 1023.0 1022.3 0.0
22/12:30am 14.9 14.4 12.6 86 1.3 ESE 7 9 4 5 1023.2 1022.5 0.0
22/12:00am 14.9 15.7 12.4 85 1.4 CALM 0 0 0 0 1023.1 1022.4 0.0
 
Date/Time
EST
Temp
°C
App
Temp
°C
Dew
Point
°C
Rel
Hum
%
Delta-T
°C
Wind Press
QNH
hPa
Press
MSL
hPa
Rain since
9am
mm
Dir  Spd
km/h
Gust
km/h
Spd
kts
Gust
kts
21/11:30pm 14.4 13.8 12.3 87 1.2 SSE 7 9 4 5 1023.0 1022.3 0.0
21/11:00pm 14.0 12.8 11.7 86 1.3 SSE 9 11 5 6 1023.2 1022.5 0.0
21/10:30pm 15.4 15.0 12.9 85 1.4 ESE 7 7 4 4 1023.3 1022.6 0.0
21/10:00pm 14.9 15.5 12.0 83 1.6 CALM 0 0 0 0 1023.4 1022.7 0.0
21/09:30pm 14.6 15.3 12.3 86 1.3 CALM 0 0 0 0 1023.3 1022.6 0.0
21/09:00pm 14.8 15.3 11.6 81 1.8 CALM 0 0 0 0 1023.1 1022.4 0.0
21/08:30pm 15.1 15.7 11.9 81 1.8 CALM 0 0 0 0 1022.8 1022.1 0.0
21/08:00pm 14.8 15.2 11.2 79 2.0 CALM 0 0 0 0 1022.6 1021.9 0.0
21/07:30pm 16.1 16.8 12.1 77 2.2 CALM 0 0 0 0 1022.7 1022.0 0.0
21/07:00pm 15.9 16.5 11.9 77 2.2 CALM 0 0 0 0 1022.5 1021.8 0.0
21/06:30pm 16.9 16.2 12.0 73 2.8 NE 7 9 4 5 1022.4 1021.7 0.0
21/06:00pm 18.1 17.4 12.1 68 3.4 NNE 7 7 4 4 1022.4 1021.7 0.0
21/05:30pm 19.8 19.3 12.6 63 4.2 NNE 7 9 4 5 1022.3 1021.5 0.0
21/05:00pm 21.4 20.5 12.5 57 5.2 N 9 11 5 6 1022.5 1021.8 0.0
21/04:30pm 22.2 21.0 12.7 55 5.6 NNW 11 15 6 8 1022.5 1021.8 0.0
21/04:00pm 23.2 21.5 12.5 51 6.2 N 13 19 7 10 1022.6 1021.9 0.0
21/03:30pm 23.2 22.8 13.1 53 6.0 NW 7 13 4 7 1022.7 1022.0 0.0
21/03:00pm 23.0 21.7 12.6 52 6.1 WNW 11 17 6 9 1022.8 1022.1 0.0
21/02:30pm 23.0 21.4 12.9 53 6.0 NW 13 17 7 9 1022.8 1022.1 0.0
21/02:00pm 23.0 22.3 13.2 54 5.8 NW 9 13 5 7 1023.1 1022.4 0.0
21/01:30pm 23.3 21.8 13.2 53 6.0 WNW 13 17 7 9 1023.3 1022.6 0.0
21/01:00pm 22.8 21.9 12.7 53 5.9 W 9 15 5 8 1023.6 1022.8 0.0
21/12:30pm 22.4 20.1 12.9 55 5.6 NNW 17 28 9 15 1024.1 1023.4 0.0
21/12:00pm 22.6 20.9 13.7 57 5.3 NW 15 20 8 11 1024.5 1023.8 0.0
21/11:30am 21.3 21.0 13.2 60 4.8 N 7 11 4 6 1025.0 1024.3 0.0
21/11:00am 21.2 20.9 13.4 61 4.6 NW 7 9 4 5 1025.4 1024.7 0.0
21/10:30am 21.0 21.7 13.4 62 4.5 NW 2 9 1 5 1025.6 1024.9 0.0
21/10:00am 19.7 19.3 12.9 65 3.9 WNW 7 11 4 6 1025.8 1025.1 0.0
21/09:30am 18.0 18.6 13.1 73 2.8 SE 2 7 1 4 1025.9 1025.2 0.0
21/09:00am 16.7 16.3 13.0 79 2.1 WSW 7 9 4 5 1026.2 1025.5 0.0
21/08:30am 15.5 15.4 13.3 87 1.3 SE 6 9 3 5 1025.8 1025.1 0.0
21/08:00am 13.6 14.7 13.4 99 0.1 CALM 0 0 0 0 1025.8 1025.1 0.0
21/07:58am 13.3 14.3 13.1 99 0.1 CALM 0 0 0 0 1025.8 1025.1 0.0
21/07:36am 11.4 10.6 11.2 99 0.1 ESE 6 7 3 4 1025.8 1025.1 0.0
21/07:34am 11.2 10.2 11.0 99 0.1 ESE 7 7 4 4 1025.8 1025.1 0.0
21/07:30am 10.9 10.4 10.7 99 0.1 ESE 4 7 2 4 1025.8 1025.1 0.0
21/07:15am 10.0 8.9 9.9 99 0.1 ESE 6 7 3 4 1025.7 1025.0 0.0
21/07:03am 9.3 7.8 9.2 99 0.1 ESE 7 7 4 4 1025.7 1025.0 0.0
21/07:00am 9.2 7.7 9.1 99 0.1 ESE 7 9 4 5 1025.7 1025.0 0.0
21/06:30am 9.8 9.8 9.7 99 0.1 CALM 0 0 0 0 1025.4 1024.7 0.0
21/06:22am 10.2 10.3 10.1 99 0.1 CALM 0 0 0 0 1025.4 1024.7 0.0
21/06:09am 10.4 10.5 10.2 99 0.1 CALM 0 0 0 0 1025.2 1024.5 0.0
21/06:00am 9.9 9.9 9.8 99 0.1 CALM 0 0 0 0 1025.1 1024.4 0.0
21/05:50am 9.2 9.0 9.1 99 0.1 CALM 0 0 0 0 1025.0 1024.3 0.0
21/05:34am 9.7 9.6 9.6 99 0.1 CALM 0 0 0 0 1024.9 1024.2 0.0
21/05:30am 10.2 10.3 10.1 99 0.1 CALM 0 0 0 0 1024.9 1024.2 0.0
21/05:00am 11.2 11.5 11.0 99 0.1 CALM 0 0 0 0 1024.7 1024.0 0.0
21/04:47am 11.0 11.3 10.8 99 0.1 CALM 0 0 0 0 1024.7 1024.0 0.0
21/04:31am 11.2 11.5 11.0 99 0.1 CALM 0 0 0 0 1024.7 1024.0 0.0
21/04:30am 11.2 11.5 11.0 99 0.1 CALM 0 0 0 0 1024.7 1024.0 0.0
21/04:00am 11.9 12.4 11.7 99 0.1 CALM 0 0 0 0 1024.5 1023.8 0.0
21/03:49am 11.2 10.7 10.9 98 0.2 ESE 4 7 2 4 1024.5 1023.8 0.0
21/03:30am 12.4 11.3 12.1 98 0.2 ESE 9 9 5 5 1024.6 1023.9 0.0
21/03:00am 12.5 11.8 11.9 96 0.3 ESE 7 9 4 5 1024.7 1024.0 0.0
21/02:34am 13.6 13.1 12.7 94 0.5 ESE 7 7 4 4 1024.8 1024.1 0.0
21/02:30am 13.9 14.1 13.1 95 0.5 ESE 4 7 2 4 1024.9 1024.2 0.0
21/02:00am 14.5 14.5 13.7 95 0.5 ESE 6 11 3 6 1025.1 1024.4 0.0
21/01:30am 14.2 14.8 13.2 94 0.6 ESE 2 7 1 4 1025.1 1024.4 0.0
21/01:00am 14.5 15.8 14.0 97 0.3 CALM 0 0 0 0 1025.1 1024.4 0.0
21/12:43am 14.3 14.6 13.3 94 0.6 ESE 4 7 2 4 1025.2 1024.5 0.0
21/12:30am 14.1 13.7 13.1 94 0.6 ESE 7 9 4 5 1025.2 1024.5 0.0
21/12:00am 14.3 14.0 13.3 94 0.6 SE 7 9 4 5 1025.1 1024.4 0.0
 
Date/Time
EST
Temp
°C
App
Temp
°C
Dew
Point
°C
Rel
Hum
%
Delta-T
°C
Wind Press
QNH
hPa
Press
MSL
hPa
Rain since
9am
mm
Dir  Spd
km/h
Gust
km/h
Spd
kts
Gust
kts
20/11:30pm 14.7 13.6 13.2 91 0.9 SE 11 13 6 7 1025.2 1024.5 0.0
20/11:00pm 15.3 14.3 13.5 89 1.0 SE 11 13 6 7 1025.5 1024.8 0.0
20/10:30pm 15.5 14.2 12.4 82 1.7 ESE 11 15 6 8 1025.6 1024.9 0.0
20/10:00pm 16.8 15.8 13.5 81 1.9 E 11 13 6 7 1025.7 1025.0 0.0
20/09:30pm 16.3 15.8 12.7 79 2.0 SE 7 9 4 5 1025.5 1024.8 0.0
20/09:00pm 17.3 17.4 12.8 75 2.6 NNE 4 9 2 5 1025.2 1024.5 0.0
20/08:30pm 18.9 18.4 13.7 72 3.1 NE 9 15 5 8 1024.8 1024.1 0.0
20/08:00pm 19.2 17.4 13.2 68 3.5 ENE 15 20 8 11 1024.7 1024.0 0.0
20/07:30pm 19.8 17.3 12.3 62 4.3 E 17 22 9 12 1024.4 1023.7 0.0
20/07:00pm 17.2 15.1 9.6 61 4.1 E 11 20 6 11 1024.3 1023.6 0.0
20/06:30pm 17.4 15.5 9.1 58 4.4 ENE 9 9 5 5 1024.0 1023.3 0.0
20/06:00pm 19.2 17.7 9.1 52 5.4 E 7 9 4 5 1023.8 1023.0 0.0
20/05:30pm 21.9 19.8 8.4 42 7.3 W 9 9 5 5 1023.6 1022.8 0.0
20/05:00pm 23.8 21.6 9.4 40 8.0 W 11 15 6 8 1023.2 1022.5 0.0
20/04:30pm 24.9 22.2 8.8 36 8.9 WSW 13 15 7 8 1023.3 1022.6 0.0
20/04:00pm 25.0 23.0 8.5 35 9.1 SSW 9 11 5 6 1023.4 1022.7 0.0
20/03:30pm 25.2 23.6 8.7 35 9.1 WSW 7 13 4 7 1023.7 1022.9 0.0
20/03:00pm 25.7 23.0 9.1 35 9.3 SW 13 17 7 9 1023.9 1023.2 0.0
20/02:30pm 24.5 22.3 9.3 38 8.5 SSW 11 15 6 8 1024.2 1023.5 0.0
20/02:00pm 25.3 23.5 9.6 37 8.8 W 9 13 5 7 1024.4 1023.7 0.0
20/01:30pm 24.7 23.8 11.3 43 7.7 WNW 7 15 4 8 1024.7 1024.0 0.0
20/01:00pm 24.2 23.3 12.5 48 6.9 W 9 15 5 8 1025.2 1024.5 0.0
20/12:30pm 23.1 21.2 13.0 53 6.0 W 15 20 8 11 1025.8 1025.1 0.0
20/12:00pm 22.4 22.9 12.9 55 5.6 WNW 2 9 1 5 1026.3 1025.6 0.0
20/11:30am 21.3 21.7 13.7 62 4.5 NNW 4 11 2 6 1026.9 1026.3 0.0
20/11:00am 19.8 19.4 13.0 65 3.9 NW 7 11 4 6 1027.4 1026.7 0.0
20/10:30am 18.5 18.0 12.7 69 3.3 SSW 7 13 4 7 1027.7 1027.0 0.0
20/10:00am 17.7 16.8 12.6 72 2.9 SSW 9 13 5 7 1028.0 1027.3 0.0
20/09:50am 17.7 17.8 12.8 73 2.8 S 4 11 2 6 1028.2 1027.5 0.0
20/09:30am 16.6 16.1 12.8 78 2.2 E 7 13 4 7 1028.4 1027.8 0.0
20/09:00am 15.4 16.2 12.7 84 1.5 CALM 0 11 0 6 1028.6 1028.0 0.0
20/08:30am 14.1 13.5 11.6 85 1.4 SSE 6 7 3 4 1028.5 1027.9 0.0
20/08:00am 13.3 12.4 11.2 87 1.1 SSE 7 9 4 5 1028.4 1027.8 0.0
20/07:30am 12.4 10.5 10.6 89 1.0 SE 11 13 6 7 1028.1 1027.4 0.0
20/07:00am 12.2 10.4 10.8 91 0.7 SSW 11 11 6 6 1027.9 1027.2 0.0
20/06:37am 12.1 11.2 10.8 92 0.7 SSE 6 11 3 6 1027.7 1027.0 0.0
20/06:30am 12.0 10.5 10.7 92 0.7 SE 9 11 5 6 1027.7 1027.0 0.0
20/06:00am 12.0 10.2 10.9 93 0.6 SE 11 13 6 7 1027.6 1026.9 0.0
20/05:30am 12.0 10.0 11.4 96 0.3 ESE 13 15 7 8 1027.5 1026.8 0.0
20/05:00am 11.1 10.0 10.8 98 0.2 E 7 9 4 5 1027.6 1026.9 0.0
20/04:54am 11.1 9.7 10.8 98 0.2 E 9 11 5 6 1027.5 1026.8 0.0
20/04:40am 10.9 9.3 10.1 95 0.4 ESE 9 13 5 7 1027.5 1026.8 0.0
20/04:30am 11.6 11.6 11.0 96 0.3 E 2 13 1 7 1027.4 1026.7 0.0
20/04:00am 10.5 10.4 9.6 94 0.5 CALM 0 2 0 1 1027.3 1026.6 0.0
20/03:30am 10.9 9.8 10.0 94 0.5 SE 6 9 3 5 1027.2 1026.5 0.0
20/03:00am 10.6 8.7 8.9 89 0.9 ESE 9 13 5 7 1027.2 1026.5 0.0
20/02:30am 11.6 9.6 10.2 91 0.7 SE 11 13 6 7 1027.3 1026.6 0.0
20/02:00am 10.6 8.0 9.5 93 0.6 SE 13 15 7 8 1027.4 1026.7 0.0
20/01:30am 11.2 9.4 9.5 89 0.9 SE 9 11 5 6 1027.4 1026.7 0.0
20/01:00am 12.0 10.4 10.2 89 0.9 SSE 9 11 5 6 1027.5 1026.8 0.0
20/12:30am 11.1 9.8 9.9 92 0.6 ESE 7 9 4 5 1027.4 1026.7 0.0
20/12:00am 11.8 11.7 9.4 85 1.2 CALM 0 0 0 0 1027.5 1026.8 0.0
 
Date/Time
EST
Temp
°C
App
Temp
°C
Dew
Point
°C
Rel
Hum
%
Delta-T
°C
Wind Press
QNH
hPa
Press
MSL
hPa
Rain since
9am
mm
Dir  Spd
km/h
Gust
km/h
Spd
kts
Gust
kts
19/11:30pm 12.1 12.1 9.7 85 1.3 CALM 0 0 0 0 1027.6 1026.9 0.0
19/11:00pm 12.2 10.8 9.6 84 1.4 N 7 9 4 5 1027.7 1027.0 0.0
19/10:30pm 12.3 9.7 9.5 83 1.5 ESE 13 17 7 9 1027.7 1027.0 0.0
19/10:00pm 13.1 13.2 10.1 82 1.6 CALM 0 0 0 0 1027.8 1027.1 0.0
19/09:30pm 12.7 12.5 9.2 79 1.8 CALM 0 0 0 0 1027.7 1027.0 0.0
19/09:00pm 13.5 13.4 9.6 77 2.0 CALM 0 0 0 0 1027.6 1026.9 0.0
19/08:30pm 14.1 13.0 10.1 77 2.1 SE 6 9 3 5 1027.5 1026.8 0.0

Latest Capital City Observations: Canberra | Sydney | Melbourne | Brisbane | Adelaide | Perth | Hobart | Darwin

Other formats

Comma delimited format used in spreadsheet applications
http://www.bom.gov.au/fwo/IDN60903/IDN60903.94926.axf

JavaScript Object Notation format (JSON) in row-major order
http://www.bom.gov.au/fwo/IDN60903/IDN60903.94926.json

Data quality

Most of these data are generated automatically and are frequently updated. Quality checks on data are not normally performed. It is possible for incorrect values to appear. Refer to information at About Latest Weather Observations and please check the disclaimer before using these data.